sensor_id;sensor_type;location;lat;lon;timestamp;temperature;humidity
68098;DHT22;54886;47.036;15.466;2023-10-13T00:01:18;14.38;77.35
68098;DHT22;54886;47.036;15.466;2023-10-13T00:03:43;14.30;79.13
68098;DHT22;54886;47.036;15.466;2023-10-13T00:06:08;14.31;77.53
68098;DHT22;54886;47.036;15.466;2023-10-13T00:08:34;14.30;76.80
68098;DHT22;54886;47.036;15.466;2023-10-13T00:11:01;14.27;77.39
68098;DHT22;54886;47.036;15.466;2023-10-13T00:13:27;14.25;77.08
68098;DHT22;54886;47.036;15.466;2023-10-13T00:15:53;14.25;76.95
68098;DHT22;54886;47.036;15.466;2023-10-13T00:18:25;14.23;77.21
68098;DHT22;54886;47.036;15.466;2023-10-13T00:20:58;14.12;78.43
68098;DHT22;54886;47.036;15.466;2023-10-13T00:23:23;14.10;78.61
68098;DHT22;54886;47.036;15.466;2023-10-13T00:25:52;14.09;77.65
68098;DHT22;54886;47.036;15.466;2023-10-13T00:28:25;14.03;78.93
68098;DHT22;54886;47.036;15.466;2023-10-13T00:30:51;14.06;77.51
68098;DHT22;54886;47.036;15.466;2023-10-13T00:33:18;14.04;77.40
68098;DHT22;54886;47.036;15.466;2023-10-13T00:35:47;14.04;77.13
68098;DHT22;54886;47.036;15.466;2023-10-13T00:38:13;14.04;76.83
68098;DHT22;54886;47.036;15.466;2023-10-13T00:40:39;14.04;76.96
68098;DHT22;54886;47.036;15.466;2023-10-13T00:43:05;14.00;77.20
68098;DHT22;54886;47.036;15.466;2023-10-13T00:45:51;13.97;77.01
68098;DHT22;54886;47.036;15.466;2023-10-13T00:48:27;13.93;77.15
68098;DHT22;54886;47.036;15.466;2023-10-13T00:51:05;13.96;76.85
68098;DHT22;54886;47.036;15.466;2023-10-13T00:53:43;13.90;77.02
68098;DHT22;54886;47.036;15.466;2023-10-13T00:56:09;13.95;76.81
68098;DHT22;54886;47.036;15.466;2023-10-13T00:58:43;13.93;76.65
68098;DHT22;54886;47.036;15.466;2023-10-13T01:01:09;13.87;76.85
68098;DHT22;54886;47.036;15.466;2023-10-13T01:03:54;13.79;77.69
68098;DHT22;54886;47.036;15.466;2023-10-13T01:06:24;13.76;77.46
68098;DHT22;54886;47.036;15.466;2023-10-13T01:08:58;13.76;77.04
68098;DHT22;54886;47.036;15.466;2023-10-13T01:11:42;13.78;77.04
68098;DHT22;54886;47.036;15.466;2023-10-13T01:14:11;13.78;76.86
68098;DHT22;54886;47.036;15.466;2023-10-13T01:16:37;13.72;77.36
68098;DHT22;54886;47.036;15.466;2023-10-13T01:19:05;13.73;76.99
68098;DHT22;54886;47.036;15.466;2023-10-13T01:21:30;13.75;76.85
68098;DHT22;54886;47.036;15.466;2023-10-13T01:23:57;13.70;76.88
68098;DHT22;54886;47.036;15.466;2023-10-13T01:26:23;13.70;77.25
68098;DHT22;54886;47.036;15.466;2023-10-13T01:28:51;13.63;77.37
68098;DHT22;54886;47.036;15.466;2023-10-13T01:31:19;13.55;78.07
68098;DHT22;54886;47.036;15.466;2023-10-13T01:33:53;13.54;77.81
68098;DHT22;54886;47.036;15.466;2023-10-13T01:36:24;13.52;78.31
68098;DHT22;54886;47.036;15.466;2023-10-13T01:38:50;13.51;78.72
68098;DHT22;54886;47.036;15.466;2023-10-13T01:41:15;13.48;79.10
68098;DHT22;54886;47.036;15.466;2023-10-13T01:43:41;13.47;78.98
68098;DHT22;54886;47.036;15.466;2023-10-13T01:46:06;13.49;78.15
68098;DHT22;54886;47.036;15.466;2023-10-13T01:48:32;13.48;78.46
68098;DHT22;54886;47.036;15.466;2023-10-13T01:50:58;13.51;78.57
68098;DHT22;54886;47.036;15.466;2023-10-13T01:53:28;13.51;78.47
68098;DHT22;54886;47.036;15.466;2023-10-13T01:55:54;13.48;77.90
68098;DHT22;54886;47.036;15.466;2023-10-13T01:58:22;13.47;78.23
68098;DHT22;54886;47.036;15.466;2023-10-13T02:00:48;13.41;79.92
68098;DHT22;54886;47.036;15.466;2023-10-13T02:03:13;13.37;80.38
68098;DHT22;54886;47.036;15.466;2023-10-13T02:05:42;13.34;80.69
68098;DHT22;54886;47.036;15.466;2023-10-13T02:08:16;13.35;79.33
68098;DHT22;54886;47.036;15.466;2023-10-13T02:10:49;13.35;78.29
68098;DHT22;54886;47.036;15.466;2023-10-13T02:13:14;13.32;78.15
68098;DHT22;54886;47.036;15.466;2023-10-13T02:15:42;13.30;78.28
68098;DHT22;54886;47.036;15.466;2023-10-13T02:18:12;13.31;78.09
68098;DHT22;54886;47.036;15.466;2023-10-13T02:20:38;13.28;78.18
68098;DHT22;54886;47.036;15.466;2023-10-13T02:23:10;13.20;78.94
68098;DHT22;54886;47.036;15.466;2023-10-13T02:25:36;13.20;78.24
68098;DHT22;54886;47.036;15.466;2023-10-13T02:28:08;13.21;78.14
68098;DHT22;54886;47.036;15.466;2023-10-13T02:30:41;13.18;77.98
68098;DHT22;54886;47.036;15.466;2023-10-13T02:33:13;13.11;78.47
68098;DHT22;54886;47.036;15.466;2023-10-13T02:35:38;13.10;78.12
68098;DHT22;54886;47.036;15.466;2023-10-13T02:38:07;13.11;77.83
68098;DHT22;54886;47.036;15.466;2023-10-13T02:40:37;13.08;78.14
68098;DHT22;54886;47.036;15.466;2023-10-13T02:43:02;13.08;77.91
68098;DHT22;54886;47.036;15.466;2023-10-13T02:45:29;13.07;77.86
68098;DHT22;54886;47.036;15.466;2023-10-13T02:47:54;13.02;78.12
68098;DHT22;54886;47.036;15.466;2023-10-13T02:50:35;12.99;78.42
68098;DHT22;54886;47.036;15.466;2023-10-13T02:53:03;12.95;78.49
68098;DHT22;54886;47.036;15.466;2023-10-13T02:55:30;12.89;78.55
68098;DHT22;54886;47.036;15.466;2023-10-13T02:57:56;12.87;78.23
68098;DHT22;54886;47.036;15.466;2023-10-13T03:00:22;12.82;78.79
68098;DHT22;54886;47.036;15.466;2023-10-13T03:02:48;12.78;78.84
68098;DHT22;54886;47.036;15.466;2023-10-13T03:05:23;12.82;78.24
68098;DHT22;54886;47.036;15.466;2023-10-13T03:07:48;12.79;78.16
68098;DHT22;54886;47.036;15.466;2023-10-13T03:10:15;12.75;78.23
68098;DHT22;54886;47.036;15.466;2023-10-13T03:12:44;12.73;78.17
68098;DHT22;54886;47.036;15.466;2023-10-13T03:15:13;12.73;78.10
68098;DHT22;54886;47.036;15.466;2023-10-13T03:17:45;12.70;79.01
68098;DHT22;54886;47.036;15.466;2023-10-13T03:22:38;12.60;79.27
68098;DHT22;54886;47.036;15.466;2023-10-13T03:25:04;12.59;79.01
68098;DHT22;54886;47.036;15.466;2023-10-13T03:27:34;12.59;78.32
68098;DHT22;54886;47.036;15.466;2023-10-13T03:30:05;12.52;79.10
68098;DHT22;54886;47.036;15.466;2023-10-13T03:32:38;12.59;78.56
68098;DHT22;54886;47.036;15.466;2023-10-13T03:35:08;12.55;78.53
68098;DHT22;54886;47.036;15.466;2023-10-13T03:37:48;12.55;78.26
68098;DHT22;54886;47.036;15.466;2023-10-13T03:40:14;12.52;78.34
68098;DHT22;54886;47.036;15.466;2023-10-13T03:42:51;12.52;78.18
68098;DHT22;54886;47.036;15.466;2023-10-13T03:45:31;12.51;78.51
68098;DHT22;54886;47.036;15.466;2023-10-13T03:48:07;12.51;78.59
68098;DHT22;54886;47.036;15.466;2023-10-13T03:50:37;12.42;79.50
68098;DHT22;54886;47.036;15.466;2023-10-13T03:53:03;12.42;79.19
68098;DHT22;54886;47.036;15.466;2023-10-13T03:55:31;12.41;79.07
68098;DHT22;54886;47.036;15.466;2023-10-13T03:57:59;12.32;79.80
68098;DHT22;54886;47.036;15.466;2023-10-13T04:00:25;12.38;79.10
68098;DHT22;54886;47.036;15.466;2023-10-13T04:02:52;12.35;79.39
68098;DHT22;54886;47.036;15.466;2023-10-13T04:05:32;12.34;79.51
68098;DHT22;54886;47.036;15.466;2023-10-13T04:08:05;12.34;79.69
68098;DHT22;54886;47.036;15.466;2023-10-13T04:11:00;12.31;79.66
68098;DHT22;54886;47.036;15.466;2023-10-13T04:13:57;12.31;79.60
68098;DHT22;54886;47.036;15.466;2023-10-13T04:16:41;12.37;79.42
68098;DHT22;54886;47.036;15.466;2023-10-13T04:19:17;12.37;79.21
68098;DHT22;54886;47.036;15.466;2023-10-13T04:21:48;12.38;78.65
68098;DHT22;54886;47.036;15.466;2023-10-13T04:24:39;12.35;79.25
68098;DHT22;54886;47.036;15.466;2023-10-13T04:27:04;12.34;78.95
68098;DHT22;54886;47.036;15.466;2023-10-13T04:30:05;12.35;79.27
68098;DHT22;54886;47.036;15.466;2023-10-13T04:32:33;12.27;80.06
68098;DHT22;54886;47.036;15.466;2023-10-13T04:35:03;12.24;80.21
68098;DHT22;54886;47.036;15.466;2023-10-13T04:37:49;12.24;79.19
68098;DHT22;54886;47.036;15.466;2023-10-13T04:40:26;12.27;78.83
68098;DHT22;54886;47.036;15.466;2023-10-13T04:42:53;12.24;78.89
68098;DHT22;54886;47.036;15.466;2023-10-13T04:45:21;12.27;79.07
68098;DHT22;54886;47.036;15.466;2023-10-13T04:48:03;12.20;79.22
68098;DHT22;54886;47.036;15.466;2023-10-13T04:50:47;12.17;79.12
68098;DHT22;54886;47.036;15.466;2023-10-13T04:53:16;12.20;78.67
68098;DHT22;54886;47.036;15.466;2023-10-13T04:56:20;12.20;78.68
68098;DHT22;54886;47.036;15.466;2023-10-13T04:59:04;12.18;79.38
68098;DHT22;54886;47.036;15.466;2023-10-13T05:01:48;12.14;79.13
68098;DHT22;54886;47.036;15.466;2023-10-13T05:04:22;12.12;79.45
68098;DHT22;54886;47.036;15.466;2023-10-13T05:07:03;12.12;79.12
68098;DHT22;54886;47.036;15.466;2023-10-13T05:09:47;12.12;79.05
68098;DHT22;54886;47.036;15.466;2023-10-13T05:12:31;12.08;79.75
68098;DHT22;54886;47.036;15.466;2023-10-13T05:15:15;12.12;79.42
68098;DHT22;54886;47.036;15.466;2023-10-13T05:17:59;12.12;78.92
68098;DHT22;54886;47.036;15.466;2023-10-13T05:20:43;12.10;79.77
68098;DHT22;54886;47.036;15.466;2023-10-13T05:23:27;12.08;79.26
68098;DHT22;54886;47.036;15.466;2023-10-13T05:26:11;12.10;79.59
68098;DHT22;54886;47.036;15.466;2023-10-13T05:28:55;12.10;79.33
68098;DHT22;54886;47.036;15.466;2023-10-13T05:31:39;12.08;80.89
68098;DHT22;54886;47.036;15.466;2023-10-13T05:34:23;12.07;81.00
68098;DHT22;54886;47.036;15.466;2023-10-13T05:37:07;12.06;82.29
68098;DHT22;54886;47.036;15.466;2023-10-13T05:39:51;12.04;81.16
68098;DHT22;54886;47.036;15.466;2023-10-13T05:42:35;12.12;80.23
68098;DHT22;54886;47.036;15.466;2023-10-13T05:45:19;12.10;81.72
68098;DHT22;54886;47.036;15.466;2023-10-13T05:48:05;12.07;81.98
68098;DHT22;54886;47.036;15.466;2023-10-13T05:53:35;12.13;80.42
68098;DHT22;54886;47.036;15.466;2023-10-13T05:56:19;12.17;81.26
68098;DHT22;54886;47.036;15.466;2023-10-13T05:59:03;12.18;80.90
68098;DHT22;54886;47.036;15.466;2023-10-13T06:01:54;12.21;81.22
68098;DHT22;54886;47.036;15.466;2023-10-13T06:04:38;12.21;81.19
68098;DHT22;54886;47.036;15.466;2023-10-13T06:07:22;12.30;81.41
68098;DHT22;54886;47.036;15.466;2023-10-13T06:10:06;12.28;80.38
68098;DHT22;54886;47.036;15.466;2023-10-13T06:12:50;12.31;81.85
68098;DHT22;54886;47.036;15.466;2023-10-13T06:15:37;12.34;82.85
68098;DHT22;54886;47.036;15.466;2023-10-13T06:18:21;12.37;82.43
68098;DHT22;54886;47.036;15.466;2023-10-13T06:21:05;12.38;81.99
68098;DHT22;54886;47.036;15.466;2023-10-13T06:23:49;12.40;84.24
68098;DHT22;54886;47.036;15.466;2023-10-13T06:26:33;12.45;83.70
68098;DHT22;54886;47.036;15.466;2023-10-13T06:29:17;12.45;84.38
68098;DHT22;54886;47.036;15.466;2023-10-13T06:31:45;12.49;81.78
68098;DHT22;54886;47.036;15.466;2023-10-13T06:34:11;12.52;81.70
68098;DHT22;54886;47.036;15.466;2023-10-13T06:36:40;12.55;81.39
68098;DHT22;54886;47.036;15.466;2023-10-13T06:39:06;12.56;79.90
68098;DHT22;54886;47.036;15.466;2023-10-13T06:42:06;12.62;81.17
68098;DHT22;54886;47.036;15.466;2023-10-13T06:44:31;12.66;81.43
68098;DHT22;54886;47.036;15.466;2023-10-13T06:46:57;12.70;81.46
68098;DHT22;54886;47.036;15.466;2023-10-13T06:49:23;12.72;81.53
68098;DHT22;54886;47.036;15.466;2023-10-13T06:51:48;12.78;83.05
68098;DHT22;54886;47.036;15.466;2023-10-13T06:54:14;12.79;83.53
68098;DHT22;54886;47.036;15.466;2023-10-13T06:56:46;12.82;82.81
68098;DHT22;54886;47.036;15.466;2023-10-13T06:59:11;12.86;83.16
68098;DHT22;54886;47.036;15.466;2023-10-13T07:01:39;12.87;83.43
68098;DHT22;54886;47.036;15.466;2023-10-13T07:04:08;12.86;80.96
68098;DHT22;54886;47.036;15.466;2023-10-13T07:06:41;12.90;80.55
68098;DHT22;54886;47.036;15.466;2023-10-13T07:09:12;12.95;82.82
68098;DHT22;54886;47.036;15.466;2023-10-13T07:11:49;13.02;82.69
68098;DHT22;54886;47.036;15.466;2023-10-13T07:14:17;13.07;83.29
68098;DHT22;54886;47.036;15.466;2023-10-13T07:16:43;13.13;82.97
68098;DHT22;54886;47.036;15.466;2023-10-13T07:19:12;13.14;80.98
68098;DHT22;54886;47.036;15.466;2023-10-13T07:21:42;13.18;82.85
68098;DHT22;54886;47.036;15.466;2023-10-13T07:24:10;13.23;82.31
68098;DHT22;54886;47.036;15.466;2023-10-13T07:26:36;13.30;82.40
68098;DHT22;54886;47.036;15.466;2023-10-13T07:29:08;13.35;82.69
68098;DHT22;54886;47.036;15.466;2023-10-13T07:31:34;13.42;82.29
68098;DHT22;54886;47.036;15.466;2023-10-13T07:34:06;13.51;82.42
68098;DHT22;54886;47.036;15.466;2023-10-13T07:36:38;13.54;81.72
68098;DHT22;54886;47.036;15.466;2023-10-13T07:39:08;13.61;81.94
68098;DHT22;54886;47.036;15.466;2023-10-13T07:41:49;13.63;82.17
68098;DHT22;54886;47.036;15.466;2023-10-13T07:44:29;13.73;82.46
68098;DHT22;54886;47.036;15.466;2023-10-13T07:46:57;13.78;82.59
68098;DHT22;54886;47.036;15.466;2023-10-13T07:49:28;13.86;82.45
68098;DHT22;54886;47.036;15.466;2023-10-13T07:52:05;13.91;82.05
68098;DHT22;54886;47.036;15.466;2023-10-13T07:54:44;14.00;82.01
68098;DHT22;54886;47.036;15.466;2023-10-13T07:57:12;14.04;82.09
68098;DHT22;54886;47.036;15.466;2023-10-13T07:59:39;14.14;82.32
68098;DHT22;54886;47.036;15.466;2023-10-13T08:02:14;14.20;81.96
68098;DHT22;54886;47.036;15.466;2023-10-13T08:04:58;14.25;81.52
68098;DHT22;54886;47.036;15.466;2023-10-13T08:07:23;14.31;81.44
68098;DHT22;54886;47.036;15.466;2023-10-13T08:09:53;14.37;81.93
68098;DHT22;54886;47.036;15.466;2023-10-13T08:12:18;14.48;82.06
68098;DHT22;54886;47.036;15.466;2023-10-13T08:14:46;14.54;81.68
68098;DHT22;54886;47.036;15.466;2023-10-13T08:17:12;14.62;81.65
68098;DHT22;54886;47.036;15.466;2023-10-13T08:19:38;14.68;81.81
68098;DHT22;54886;47.036;15.466;2023-10-13T08:22:13;14.76;81.80
68098;DHT22;54886;47.036;15.466;2023-10-13T08:24:44;14.85;81.93
68098;DHT22;54886;47.036;15.466;2023-10-13T08:27:10;14.89;81.07
68098;DHT22;54886;47.036;15.466;2023-10-13T08:29:54;14.93;81.64
68098;DHT22;54886;47.036;15.466;2023-10-13T08:32:19;15.02;81.79
68098;DHT22;54886;47.036;15.466;2023-10-13T08:34:50;15.08;81.83
68098;DHT22;54886;47.036;15.466;2023-10-13T08:37:18;15.14;82.84
68098;DHT22;54886;47.036;15.466;2023-10-13T08:39:47;15.21;82.16
68098;DHT22;54886;47.036;15.466;2023-10-13T08:42:31;15.28;81.59
68098;DHT22;54886;47.036;15.466;2023-10-13T08:45:25;15.32;80.90
68098;DHT22;54886;47.036;15.466;2023-10-13T08:47:53;15.41;80.57
68098;DHT22;54886;47.036;15.466;2023-10-13T08:50:33;15.44;80.38
68098;DHT22;54886;47.036;15.466;2023-10-13T08:58:38;15.62;78.71
68098;DHT22;54886;47.036;15.466;2023-10-13T09:01:25;15.66;79.09
68098;DHT22;54886;47.036;15.466;2023-10-13T09:04:10;15.69;78.42
68098;DHT22;54886;47.036;15.466;2023-10-13T09:07:01;15.76;78.10
68098;DHT22;54886;47.036;15.466;2023-10-13T09:09:33;15.79;78.30
68098;DHT22;54886;47.036;15.466;2023-10-13T09:12:02;15.89;78.03
68098;DHT22;54886;47.036;15.466;2023-10-13T09:14:37;15.92;78.01
68098;DHT22;54886;47.036;15.466;2023-10-13T09:17:07;15.97;76.87
68098;DHT22;54886;47.036;15.466;2023-10-13T09:19:50;16.02;76.63
68098;DHT22;54886;47.036;15.466;2023-10-13T09:22:27;16.09;76.62
68098;DHT22;54886;47.036;15.466;2023-10-13T09:24:58;16.16;76.62
68098;DHT22;54886;47.036;15.466;2023-10-13T09:27:27;16.24;74.97
68098;DHT22;54886;47.036;15.466;2023-10-13T09:29:56;16.30;75.25
68098;DHT22;54886;47.036;15.466;2023-10-13T09:32:22;16.35;75.57
68098;DHT22;54886;47.036;15.466;2023-10-13T09:34:47;16.44;74.81
68098;DHT22;54886;47.036;15.466;2023-10-13T09:37:16;16.52;74.80
68098;DHT22;54886;47.036;15.466;2023-10-13T09:39:46;16.54;74.04
68098;DHT22;54886;47.036;15.466;2023-10-13T09:42:13;16.61;74.17
68098;DHT22;54886;47.036;15.466;2023-10-13T09:44:41;16.72;73.96
68098;DHT22;54886;47.036;15.466;2023-10-13T09:47:07;16.82;74.27
68098;DHT22;54886;47.036;15.466;2023-10-13T09:49:43;16.87;74.15
68098;DHT22;54886;47.036;15.466;2023-10-13T09:52:14;16.93;73.27
68098;DHT22;54886;47.036;15.466;2023-10-13T09:54:44;17.00;73.11
68098;DHT22;54886;47.036;15.466;2023-10-13T09:57:14;17.12;72.54
68098;DHT22;54886;47.036;15.466;2023-10-13T09:59:45;17.24;73.02
68098;DHT22;54886;47.036;15.466;2023-10-13T10:02:17;17.37;71.98
68098;DHT22;54886;47.036;15.466;2023-10-13T10:04:52;17.42;71.36
68098;DHT22;54886;47.036;15.466;2023-10-13T10:07:29;17.51;70.95
68098;DHT22;54886;47.036;15.466;2023-10-13T10:09:59;17.55;71.16
68098;DHT22;54886;47.036;15.466;2023-10-13T10:17:45;17.81;70.74
68098;DHT22;54886;47.036;15.466;2023-10-13T10:20:10;17.89;69.76
68098;DHT22;54886;47.036;15.466;2023-10-13T10:22:57;17.93;69.83
68098;DHT22;54886;47.036;15.466;2023-10-13T10:25:29;18.00;69.74
68098;DHT22;54886;47.036;15.466;2023-10-13T10:27:58;18.03;69.59
68098;DHT22;54886;47.036;15.466;2023-10-13T10:30:24;18.10;67.73
68098;DHT22;54886;47.036;15.466;2023-10-13T10:32:53;18.18;66.98
68098;DHT22;54886;47.036;15.466;2023-10-13T10:35:22;18.29;68.11
68098;DHT22;54886;47.036;15.466;2023-10-13T10:37:48;18.33;67.50
68098;DHT22;54886;47.036;15.466;2023-10-13T10:40:16;18.41;67.30
68098;DHT22;54886;47.036;15.466;2023-10-13T10:43:05;18.52;69.04
68098;DHT22;54886;47.036;15.466;2023-10-13T10:45:35;18.58;69.15
68098;DHT22;54886;47.036;15.466;2023-10-13T10:48:00;18.68;67.74
68098;DHT22;54886;47.036;15.466;2023-10-13T10:50:41;18.81;67.04
68098;DHT22;54886;47.036;15.466;2023-10-13T10:53:07;18.88;67.44
68098;DHT22;54886;47.036;15.466;2023-10-13T10:55:34;18.92;66.60
68098;DHT22;54886;47.036;15.466;2023-10-13T10:58:01;18.99;66.05
68098;DHT22;54886;47.036;15.466;2023-10-13T11:00:26;19.16;66.42
68098;DHT22;54886;47.036;15.466;2023-10-13T11:03:03;19.20;66.28
68098;DHT22;54886;47.036;15.466;2023-10-13T11:05:29;19.24;66.27
68098;DHT22;54886;47.036;15.466;2023-10-13T11:07:57;19.30;64.70
68098;DHT22;54886;47.036;15.466;2023-10-13T11:10:23;19.33;62.23
68098;DHT22;54886;47.036;15.466;2023-10-13T11:13:00;19.41;61.65
68098;DHT22;54886;47.036;15.466;2023-10-13T11:15:45;19.48;63.03
68098;DHT22;54886;47.036;15.466;2023-10-13T11:18:10;19.54;62.12
68098;DHT22;54886;47.036;15.466;2023-10-13T11:20:43;19.54;59.18
68098;DHT22;54886;47.036;15.466;2023-10-13T11:23:15;19.59;59.10
68098;DHT22;54886;47.036;15.466;2023-10-13T11:25:40;19.67;61.35
68098;DHT22;54886;47.036;15.466;2023-10-13T11:28:11;19.76;59.23
68098;DHT22;54886;47.036;15.466;2023-10-13T11:30:45;19.79;60.54
68098;DHT22;54886;47.036;15.466;2023-10-13T11:33:16;19.86;60.13
68098;DHT22;54886;47.036;15.466;2023-10-13T11:36:01;19.93;59.81
68098;DHT22;54886;47.036;15.466;2023-10-13T11:38:49;20.06;57.59
68098;DHT22;54886;47.036;15.466;2023-10-13T11:41:15;20.05;58.63
68098;DHT22;54886;47.036;15.466;2023-10-13T11:46:14;20.08;57.62
68098;DHT22;54886;47.036;15.466;2023-10-13T11:48:43;20.16;57.94
68098;DHT22;54886;47.036;15.466;2023-10-13T11:51:10;20.23;58.53
68098;DHT22;54886;47.036;15.466;2023-10-13T11:53:42;20.34;58.59
68098;DHT22;54886;47.036;15.466;2023-10-13T11:56:08;20.31;57.68
68098;DHT22;54886;47.036;15.466;2023-10-13T11:58:37;20.31;56.99
68098;DHT22;54886;47.036;15.466;2023-10-13T12:01:03;20.30;56.86
68098;DHT22;54886;47.036;15.466;2023-10-13T12:03:41;20.37;57.04
68098;DHT22;54886;47.036;15.466;2023-10-13T12:06:29;20.44;57.08
68098;DHT22;54886;47.036;15.466;2023-10-13T12:09:12;20.50;57.37
68098;DHT22;54886;47.036;15.466;2023-10-13T12:11:43;20.54;57.27
68098;DHT22;54886;47.036;15.466;2023-10-13T12:14:10;20.55;57.18
68098;DHT22;54886;47.036;15.466;2023-10-13T12:16:47;20.61;58.23
68098;DHT22;54886;47.036;15.466;2023-10-13T12:19:23;20.64;56.04
68098;DHT22;54886;47.036;15.466;2023-10-13T12:21:52;20.68;56.61
68098;DHT22;54886;47.036;15.466;2023-10-13T12:24:24;20.79;56.65
68098;DHT22;54886;47.036;15.466;2023-10-13T12:27:09;20.81;55.55
68098;DHT22;54886;47.036;15.466;2023-10-13T12:29:53;20.82;56.89
68098;DHT22;54886;47.036;15.466;2023-10-13T12:32:18;20.95;56.02
68098;DHT22;54886;47.036;15.466;2023-10-13T12:34:56;20.95;57.18
68098;DHT22;54886;47.036;15.466;2023-10-13T12:37:26;20.98;56.30
68098;DHT22;54886;47.036;15.466;2023-10-13T12:40:07;21.07;55.40
68098;DHT22;54886;47.036;15.466;2023-10-13T12:42:52;21.13;56.78
68098;DHT22;54886;47.036;15.466;2023-10-13T12:45:39;21.16;56.25
68098;DHT22;54886;47.036;15.466;2023-10-13T12:48:23;21.23;55.10
68098;DHT22;54886;47.036;15.466;2023-10-13T12:51:08;21.26;56.64
68098;DHT22;54886;47.036;15.466;2023-10-13T12:53:48;21.31;56.88
68098;DHT22;54886;47.036;15.466;2023-10-13T12:56:13;21.34;56.32
68098;DHT22;54886;47.036;15.466;2023-10-13T12:58:39;21.34;57.41
68098;DHT22;54886;47.036;15.466;2023-10-13T13:01:05;21.39;57.31
68098;DHT22;54886;47.036;15.466;2023-10-13T13:03:33;21.44;56.56
68098;DHT22;54886;47.036;15.466;2023-10-13T13:05:59;21.51;57.63
68098;DHT22;54886;47.036;15.466;2023-10-13T13:08:24;21.53;57.03
68098;DHT22;54886;47.036;15.466;2023-10-13T13:10:50;21.55;57.42
68098;DHT22;54886;47.036;15.466;2023-10-13T13:13:16;21.61;57.31
68098;DHT22;54886;47.036;15.466;2023-10-13T13:15:49;21.67;57.53
68098;DHT22;54886;47.036;15.466;2023-10-13T13:18:14;21.67;58.72
68098;DHT22;54886;47.036;15.466;2023-10-13T13:20:40;21.71;59.08
68098;DHT22;54886;47.036;15.466;2023-10-13T13:23:08;21.74;58.23
68098;DHT22;54886;47.036;15.466;2023-10-13T13:25:37;21.71;58.07
68098;DHT22;54886;47.036;15.466;2023-10-13T13:28:07;21.79;57.94
68098;DHT22;54886;47.036;15.466;2023-10-13T13:30:35;21.78;58.68
68098;DHT22;54886;47.036;15.466;2023-10-13T13:33:02;21.84;58.68
68098;DHT22;54886;47.036;15.466;2023-10-13T13:35:36;21.81;58.72
68098;DHT22;54886;47.036;15.466;2023-10-13T13:38:02;21.82;57.77
68098;DHT22;54886;47.036;15.466;2023-10-13T13:40:50;21.85;56.64
68098;DHT22;54886;47.036;15.466;2023-10-13T13:43:19;21.89;57.09
68098;DHT22;54886;47.036;15.466;2023-10-13T13:46:05;21.94;57.72
68098;DHT22;54886;47.036;15.466;2023-10-13T13:48:37;21.99;57.30
68098;DHT22;54886;47.036;15.466;2023-10-13T13:51:03;22.03;56.99
68098;DHT22;54886;47.036;15.466;2023-10-13T13:53:30;22.06;56.57
68098;DHT22;54886;47.036;15.466;2023-10-13T13:56:00;22.02;56.38
68098;DHT22;54886;47.036;15.466;2023-10-13T13:58:25;22.06;55.84
68098;DHT22;54886;47.036;15.466;2023-10-13T14:00:50;22.06;55.60
68098;DHT22;54886;47.036;15.466;2023-10-13T14:03:16;22.10;55.19
68098;DHT22;54886;47.036;15.466;2023-10-13T14:05:59;22.09;56.00
68098;DHT22;54886;47.036;15.466;2023-10-13T14:08:25;22.12;56.07
68098;DHT22;54886;47.036;15.466;2023-10-13T14:10:51;22.17;55.86
68098;DHT22;54886;47.036;15.466;2023-10-13T14:13:34;22.14;56.06
68098;DHT22;54886;47.036;15.466;2023-10-13T14:16:20;22.16;55.54
68098;DHT22;54886;47.036;15.466;2023-10-13T14:18:49;22.20;55.92
68098;DHT22;54886;47.036;15.466;2023-10-13T14:21:14;22.23;56.24
68098;DHT22;54886;47.036;15.466;2023-10-13T14:23:45;22.20;57.20
68098;DHT22;54886;47.036;15.466;2023-10-13T14:26:13;22.20;56.77
68098;DHT22;54886;47.036;15.466;2023-10-13T14:28:41;22.28;57.03
68098;DHT22;54886;47.036;15.466;2023-10-13T14:31:35;22.24;56.71
68098;DHT22;54886;47.036;15.466;2023-10-13T14:34:04;22.22;57.74
68098;DHT22;54886;47.036;15.466;2023-10-13T14:36:30;22.20;57.43
68098;DHT22;54886;47.036;15.466;2023-10-13T14:38:59;22.28;56.94
68098;DHT22;54886;47.036;15.466;2023-10-13T14:41:25;22.28;57.32
68098;DHT22;54886;47.036;15.466;2023-10-13T14:43:50;22.29;56.73
68098;DHT22;54886;47.036;15.466;2023-10-13T14:46:16;22.26;56.21
68098;DHT22;54886;47.036;15.466;2023-10-13T14:48:42;22.29;56.55
68098;DHT22;54886;47.036;15.466;2023-10-13T14:51:11;22.32;56.48
68098;DHT22;54886;47.036;15.466;2023-10-13T14:53:39;22.28;56.43
68098;DHT22;54886;47.036;15.466;2023-10-13T14:56:07;22.29;56.68
68098;DHT22;54886;47.036;15.466;2023-10-13T14:58:33;22.28;57.32
68098;DHT22;54886;47.036;15.466;2023-10-13T15:00:59;22.28;57.78
68098;DHT22;54886;47.036;15.466;2023-10-13T15:03:26;22.24;58.01
68098;DHT22;54886;47.036;15.466;2023-10-13T15:05:51;22.23;58.41
68098;DHT22;54886;47.036;15.466;2023-10-13T15:08:16;22.26;57.80
68098;DHT22;54886;47.036;15.466;2023-10-13T15:10:43;22.28;57.99
68098;DHT22;54886;47.036;15.466;2023-10-13T15:13:10;22.28;58.35
68098;DHT22;54886;47.036;15.466;2023-10-13T15:15:35;22.26;58.66
68098;DHT22;54886;47.036;15.466;2023-10-13T15:18:00;22.24;59.49
68098;DHT22;54886;47.036;15.466;2023-10-13T15:20:26;22.20;59.70
68098;DHT22;54886;47.036;15.466;2023-10-13T15:22:51;22.19;60.06
68098;DHT22;54886;47.036;15.466;2023-10-13T15:25:25;22.16;60.55
68098;DHT22;54886;47.036;15.466;2023-10-13T15:28:06;22.14;60.37
68098;DHT22;54886;47.036;15.466;2023-10-13T15:30:35;22.12;60.33
68098;DHT22;54886;47.036;15.466;2023-10-13T15:33:12;22.12;60.03
68098;DHT22;54886;47.036;15.466;2023-10-13T15:35:38;22.08;60.44
68098;DHT22;54886;47.036;15.466;2023-10-13T15:38:04;22.06;60.26
68098;DHT22;54886;47.036;15.466;2023-10-13T15:40:31;22.02;60.00
68098;DHT22;54886;47.036;15.466;2023-10-13T15:42:57;21.98;60.15
68098;DHT22;54886;47.036;15.466;2023-10-13T15:45:24;21.96;60.23
68098;DHT22;54886;47.036;15.466;2023-10-13T15:47:53;21.89;60.08
68098;DHT22;54886;47.036;15.466;2023-10-13T15:50:18;21.91;60.61
68098;DHT22;54886;47.036;15.466;2023-10-13T15:52:46;21.85;61.01
68098;DHT22;54886;47.036;15.466;2023-10-13T15:55:14;21.81;60.53
68098;DHT22;54886;47.036;15.466;2023-10-13T15:57:40;21.75;61.14
68098;DHT22;54886;47.036;15.466;2023-10-13T16:00:10;21.75;61.33
68098;DHT22;54886;47.036;15.466;2023-10-13T16:02:51;21.68;61.39
68098;DHT22;54886;47.036;15.466;2023-10-13T16:05:17;21.62;61.30